Dart — OUOV2 — position and weather

sailwx.info

Track history (hours):
 
Tides and Currents Weather Stations Pressure Air Temp Water Temp Dewpoint Dewpoint Depression Visibility Wind Speed Wind Dir Waves Ship Positions

Dart

Last reported at 2016-Feb-13 09:30 UTC. Time now 2016-Feb-13 23:40 UTC.
Position N 66°22' E 012°58'.

Length 66 m; draft 4 m.

Type: Tanker. MMSI: 219416000.

Date/timePositionNaut miles runAvg speedWind from/ knotsBaromVisibWave heightAir tempDewpointWater temp
2016-Feb-13 09:30N 66°22' E 012°58'9 9.6
2016-Feb-13 08:32N 66°31' E 012°57'12 9.2
2016-Feb-13 07:16N 66°42' E 013°09'710.0
2016-Feb-13 06:32N 66°49' E 013°16'9 9.0
2016-Feb-13 05:29N 66°57' E 013°29'9 9.9
2016-Feb-13 04:33N 67°02' E 013°48'1010.0
2016-Feb-13 03:34N 67°10' E 014°03'1010.1
2016-Feb-13 02:34N 67°19' E 014°18'9 9.3
2016-Feb-13 01:33N 67°27' E 014°24'10 9.6
2016-Feb-13 00:33N 67°37' E 014°19'9 9.2
2016-Feb-12 23:33N 67°46' E 014°20'2110.4
2016-Feb-12 21:31N 68°01' E 014°59'57 9.5
2016-Feb-12 15:33N 68°43' E 016°43'29 9.7
2016-Feb-12 12:33N 69°06' E 017°31'10 9.8
2016-Feb-12 11:33N 69°10' E 017°57'8 8.0
2016-Feb-12 10:33N 69°18' E 017°58'  
2016-Feb-10 01:22N 69°19' E 017°59'8 9.5
2016-Feb-10 00:33N 69°11' E 018°01'10 9.9
2016-Feb-09 23:33N 69°07' E 017°36'11 9.0
2016-Feb-09 22:21N 68°59' E 017°14'97 8.2
2016-Feb-09 10:31N 67°46' E 014°21'9 9.3
2016-Feb-09 09:33N 67°38' E 014°18'1010.1
2016-Feb-09 08:33N 67°28' E 014°24'9 9.4
2016-Feb-09 07:34N 67°19' E 014°18'10 9.6
2016-Feb-09 06:34N 67°11' E 014°04'1010.0
2016-Feb-09 05:33N 67°02' E 013°50'10 9.7
2016-Feb-09 04:33N 66°57' E 013°29'9 9.2
2016-Feb-09 03:34N 66°50' E 013°16'1410.3
2016-Feb-09 02:10N 66°36' E 013°04'5 8.4
2016-Feb-09 01:33N 66°32' E 012°57'1110.7
2016-Feb-09 00:33N 66°21' E 012°58'64 9.8
2016-Feb-08 18:04N 65°21' E 012°03'510.5
2016-Feb-08 17:32N 65°17' E 011°58'1010.4
2016-Feb-08 16:34N 65°07' E 011°50'10 9.7
2016-Feb-08 15:34N 65°01' E 011°32'9 9.4
2016-Feb-08 14:33N 64°53' E 011°19'9 9.4
2016-Feb-08 13:33N 64°46' E 011°03'79 9.8
2016-Feb-08 05:33N 63°39' E 009°29'9 9.3
2016-Feb-08 04:33N 63°32' E 009°15'244 5.8
2016-Feb-06 10:31N 59°52' E 005°33'9 9.1
2016-Feb-06 09:33N 59°43' E 005°28'10 9.5
2016-Feb-06 08:32N 59°36' E 005°16'16 3.9
2016-Feb-06 04:30N 59°20' E 005°19'7 7.8
2016-Feb-06 03:33N 59°13' E 005°21'7 6.6
2016-Feb-06 02:33N 59°07' E 005°28'7 6.6
2016-Feb-06 01:33N 59°02' E 005°37'3 2.9
2016-Feb-06 00:33N 58°60' E 005°40'0 0.0
2016-Feb-05 23:33N 58°60' E 005°40'0 0.0
2016-Feb-05 22:33N 58°60' E 005°40'0 0.0
2016-Feb-05 21:33N 58°60' E 005°40'0 0.0
2016-Feb-05 20:33N 58°60' E 005°40'0 0.0
2016-Feb-05 19:33N 58°60' E 005°40'0 0.0
2016-Feb-05 18:33N 58°60' E 005°40'0 0.0
2016-Feb-05 17:33N 58°60' E 005°40'0 0.0
2016-Feb-05 16:33N 58°60' E 005°40'0 0.1
2016-Feb-05 15:33N 58°60' E 005°40'0 0.0
2016-Feb-05 14:33N 58°60' E 005°40'0 0.0
2016-Feb-05 13:33N 58°60' E 005°40'0 0.0
2016-Feb-05 12:33N 58°60' E 005°40'2 1.9
2016-Feb-05 11:33N 59°02' E 005°38'6 6.1
2016-Feb-05 10:33N 58°56' E 005°35'0 0.4
2016-Feb-05 09:33N 58°56' E 005°36'0 0.0
2016-Feb-05 08:33N 58°56' E 005°36'0 0.0
2016-Feb-05 07:33N 58°56' E 005°36'0 0.0
2016-Feb-05 06:33N 58°56' E 005°36'0 0.2
2016-Feb-05 05:33N 58°55' E 005°36'0 0.0
2016-Feb-05 04:33N 58°55' E 005°36'0 0.0
2016-Feb-05 03:33N 58°55' E 005°36'0 0.0
2016-Feb-05 02:33N 58°55' E 005°36'0 0.0
2016-Feb-05 01:33N 58°55' E 005°36'0 0.0
2016-Feb-05 00:33N 58°55' E 005°36'0 0.2
2016-Feb-04 23:33N 58°56' E 005°36'0 0.0
2016-Feb-04 22:33N 58°56' E 005°36'0 0.0
2016-Feb-04 21:33N 58°56' E 005°36'0 0.2
2016-Feb-04 20:33N 58°55' E 005°36'0 0.0
2016-Feb-04 19:33N 58°55' E 005°36'0 0.0
2016-Feb-04 18:33N 58°55' E 005°36'0 0.0
2016-Feb-04 17:33N 58°55' E 005°36'0 0.0
2016-Feb-04 16:33N 58°55' E 005°36'0 0.0
2016-Feb-04 15:33N 58°55' E 005°36'0 0.0
2016-Feb-04 14:33N 58°55' E 005°36'0 0.2
2016-Feb-04 13:34N 58°55' E 005°35'6 6.4
2016-Feb-04 12:34N 59°02' E 005°37'2 2.2
2016-Feb-04 11:31N 58°60' E 005°40'0 0.0
2016-Feb-04 10:31N 58°60' E 005°40'0 0.0
2016-Feb-04 09:31N 58°60' E 005°40'0 0.0
2016-Feb-04 08:31N 58°60' E 005°40'0 0.0
2016-Feb-04 07:31N 58°60' E 005°40'3 3.5
2016-Feb-04 06:33N 59°02' E 005°35'9 9.2
2016-Feb-04 05:33N 58°53' E 005°32'9 9.1
2016-Feb-04 04:33N 58°45' E 005°25'8 8.1
2016-Feb-04 03:33N 58°38' E 005°31'8 7.5
2016-Feb-04 02:34N 58°31' E 005°38'7 6.7
2016-Feb-04 01:33N 58°26' E 005°48'7 7.3
2016-Feb-04 00:33N 58°21' E 005°58'7 6.7
2016-Feb-03 23:33N 58°17' E 006°07'7 7.2
2016-Feb-03 22:33N 58°12' E 006°17'6 6.3
2016-Feb-03 21:33N 58°07' E 006°26'6 6.2
2016-Feb-03 20:33N 58°03' E 006°34'6 5.5
2016-Feb-03 19:33N 58°01' E 006°44'6 6.3
2016-Feb-03 18:34N 57°59' E 006°54'7 7.2
2016-Feb-03 17:34N 57°56' E 007°07'8 7.4
2016-Feb-03 16:33N 57°55' E 007°21'  
Track history (hours):
 
Tides and Currents Weather Stations Pressure Air Temp Water Temp Dewpoint Dewpoint Depression Visibility Wind Speed Wind Dir Waves Ship Positions

Dart

Last reported at 2016-Feb-13 09:30 UTC. Time now 2016-Feb-13 23:40 UTC.
Position N 66°22' E 012°58'.

Length 66 m; draft 4 m.

Type: Tanker. MMSI: 219416000.

Date/timePositionNaut miles runAvg speedWind from/ knotsBaromVisibWave heightAir tempDewpointWater temp
2016-Feb-13 09:30N 66°22' E 012°58'9 9.6
2016-Feb-13 08:32N 66°31' E 012°57'12 9.2
2016-Feb-13 07:16N 66°42' E 013°09'710.0
2016-Feb-13 06:32N 66°49' E 013°16'9 9.0
2016-Feb-13 05:29N 66°57' E 013°29'9 9.9
2016-Feb-13 04:33N 67°02' E 013°48'1010.0
2016-Feb-13 03:34N 67°10' E 014°03'1010.1
2016-Feb-13 02:34N 67°19' E 014°18'9 9.3
2016-Feb-13 01:33N 67°27' E 014°24'10 9.6
2016-Feb-13 00:33N 67°37' E 014°19'9 9.2
2016-Feb-12 23:33N 67°46' E 014°20'2110.4
2016-Feb-12 21:31N 68°01' E 014°59'57 9.5
2016-Feb-12 15:33N 68°43' E 016°43'29 9.7
2016-Feb-12 12:33N 69°06' E 017°31'10 9.8
2016-Feb-12 11:33N 69°10' E 017°57'8 8.0
2016-Feb-12 10:33N 69°18' E 017°58'  
2016-Feb-10 01:22N 69°19' E 017°59'8 9.5
2016-Feb-10 00:33N 69°11' E 018°01'10 9.9
2016-Feb-09 23:33N 69°07' E 017°36'11 9.0
2016-Feb-09 22:21N 68°59' E 017°14'97 8.2
2016-Feb-09 10:31N 67°46' E 014°21'9 9.3
2016-Feb-09 09:33N 67°38' E 014°18'1010.1
2016-Feb-09 08:33N 67°28' E 014°24'9 9.4
2016-Feb-09 07:34N 67°19' E 014°18'10 9.6
2016-Feb-09 06:34N 67°11' E 014°04'1010.0
2016-Feb-09 05:33N 67°02' E 013°50'10 9.7
2016-Feb-09 04:33N 66°57' E 013°29'9 9.2
2016-Feb-09 03:34N 66°50' E 013°16'1410.3
2016-Feb-09 02:10N 66°36' E 013°04'5 8.4
2016-Feb-09 01:33N 66°32' E 012°57'1110.7
2016-Feb-09 00:33N 66°21' E 012°58'64 9.8
2016-Feb-08 18:04N 65°21' E 012°03'510.5
2016-Feb-08 17:32N 65°17' E 011°58'1010.4
2016-Feb-08 16:34N 65°07' E 011°50'10 9.7
2016-Feb-08 15:34N 65°01' E 011°32'9 9.4
2016-Feb-08 14:33N 64°53' E 011°19'9 9.4
2016-Feb-08 13:33N 64°46' E 011°03'79 9.8
2016-Feb-08 05:33N 63°39' E 009°29'9 9.3
2016-Feb-08 04:33N 63°32' E 009°15'244 5.8
2016-Feb-06 10:31N 59°52' E 005°33'9 9.1
2016-Feb-06 09:33N 59°43' E 005°28'10 9.5
2016-Feb-06 08:32N 59°36' E 005°16'16 3.9
2016-Feb-06 04:30N 59°20' E 005°19'7 7.8
2016-Feb-06 03:33N 59°13' E 005°21'7 6.6
2016-Feb-06 02:33N 59°07' E 005°28'7 6.6
2016-Feb-06 01:33N 59°02' E 005°37'3 2.9
2016-Feb-06 00:33N 58°60' E 005°40'0 0.0
2016-Feb-05 23:33N 58°60' E 005°40'0 0.0
2016-Feb-05 22:33N 58°60' E 005°40'0 0.0
2016-Feb-05 21:33N 58°60' E 005°40'0 0.0
2016-Feb-05 20:33N 58°60' E 005°40'0 0.0
2016-Feb-05 19:33N 58°60' E 005°40'0 0.0
2016-Feb-05 18:33N 58°60' E 005°40'0 0.0
2016-Feb-05 17:33N 58°60' E 005°40'0 0.0
2016-Feb-05 16:33N 58°60' E 005°40'0 0.1
2016-Feb-05 15:33N 58°60' E 005°40'0 0.0
2016-Feb-05 14:33N 58°60' E 005°40'0 0.0
2016-Feb-05 13:33N 58°60' E 005°40'0 0.0
2016-Feb-05 12:33N 58°60' E 005°40'2 1.9
2016-Feb-05 11:33N 59°02' E 005°38'6 6.1
2016-Feb-05 10:33N 58°56' E 005°35'0 0.4
2016-Feb-05 09:33N 58°56' E 005°36'0 0.0
2016-Feb-05 08:33N 58°56' E 005°36'0 0.0
2016-Feb-05 07:33N 58°56' E 005°36'0 0.0
2016-Feb-05 06:33N 58°56' E 005°36'0 0.2
2016-Feb-05 05:33N 58°55' E 005°36'0 0.0
2016-Feb-05 04:33N 58°55' E 005°36'0 0.0
2016-Feb-05 03:33N 58°55' E 005°36'0 0.0
2016-Feb-05 02:33N 58°55' E 005°36'0 0.0
2016-Feb-05 01:33N 58°55' E 005°36'0 0.0
2016-Feb-05 00:33N 58°55' E 005°36'0 0.2
2016-Feb-04 23:33N 58°56' E 005°36'0 0.0
2016-Feb-04 22:33N 58°56' E 005°36'0 0.0
2016-Feb-04 21:33N 58°56' E 005°36'0 0.2
2016-Feb-04 20:33N 58°55' E 005°36'0 0.0
2016-Feb-04 19:33N 58°55' E 005°36'0 0.0
2016-Feb-04 18:33N 58°55' E 005°36'0 0.0
2016-Feb-04 17:33N 58°55' E 005°36'0 0.0
2016-Feb-04 16:33N 58°55' E 005°36'0 0.0
2016-Feb-04 15:33N 58°55' E 005°36'0 0.0
2016-Feb-04 14:33N 58°55' E 005°36'0 0.2
2016-Feb-04 13:34N 58°55' E 005°35'6 6.4
2016-Feb-04 12:34N 59°02' E 005°37'2 2.2
2016-Feb-04 11:31N 58°60' E 005°40'0 0.0
2016-Feb-04 10:31N 58°60' E 005°40'0 0.0
2016-Feb-04 09:31N 58°60' E 005°40'0 0.0
2016-Feb-04 08:31N 58°60' E 005°40'0 0.0
2016-Feb-04 07:31N 58°60' E 005°40'3 3.5
2016-Feb-04 06:33N 59°02' E 005°35'9 9.2
2016-Feb-04 05:33N 58°53' E 005°32'9 9.1
2016-Feb-04 04:33N 58°45' E 005°25'8 8.1
2016-Feb-04 03:33N 58°38' E 005°31'8 7.5
2016-Feb-04 02:34N 58°31' E 005°38'7 6.7
2016-Feb-04 01:33N 58°26' E 005°48'7 7.3
2016-Feb-04 00:33N 58°21' E 005°58'7 6.7
2016-Feb-03 23:33N 58°17' E 006°07'7 7.2
2016-Feb-03 22:33N 58°12' E 006°17'6 6.3
2016-Feb-03 21:33N 58°07' E 006°26'6 6.2
2016-Feb-03 20:33N 58°03' E 006°34'6 5.5
2016-Feb-03 19:33N 58°01' E 006°44'6 6.3
2016-Feb-03 18:34N 57°59' E 006°54'7 7.2
2016-Feb-03 17:34N 57°56' E 007°07'8 7.4
2016-Feb-03 16:33N 57°55' E 007°21'  

Dump ship's entire track history